createdAt,value
2018-08-06T00:00:49.575Z,20.70
2018-08-06T00:01:57.534Z,20.68
2018-08-06T00:03:05.595Z,20.59
2018-08-06T00:04:13.935Z,20.59
2018-08-06T00:05:21.747Z,20.50
2018-08-06T00:06:29.802Z,20.58
2018-08-06T00:07:38.186Z,20.59
2018-08-06T00:08:49.330Z,20.50
2018-08-06T00:09:54.258Z,20.50
2018-08-06T00:11:02.557Z,20.53
2018-08-06T00:12:10.608Z,20.52
2018-08-06T00:13:22.075Z,20.48
2018-08-06T00:14:26.754Z,20.52
2018-08-06T00:15:34.833Z,20.56
2018-08-06T00:16:42.897Z,20.50
2018-08-06T00:17:50.976Z,20.49
2018-08-06T00:18:59.405Z,20.53
2018-08-06T00:20:07.333Z,20.52
2018-08-06T00:21:15.178Z,20.48
2018-08-06T00:22:23.254Z,20.53
2018-08-06T00:23:31.348Z,20.49
2018-08-06T00:24:39.422Z,20.49
2018-08-06T00:25:47.480Z,20.53
2018-08-06T00:26:55.510Z,20.53
2018-08-06T00:28:05.031Z,20.55
2018-08-06T00:29:11.679Z,20.64
2018-08-06T00:30:21.199Z,20.66
2018-08-06T00:31:27.829Z,20.66
2018-08-06T00:32:39.320Z,20.60
2018-08-06T00:33:43.991Z,20.63
2018-08-06T00:34:52.070Z,20.60
2018-08-06T00:36:00.116Z,20.58
2018-08-06T00:37:08.202Z,20.58
2018-08-06T00:38:16.248Z,20.60
2018-08-06T00:39:24.313Z,20.60
2018-08-06T00:40:32.405Z,20.59
2018-08-06T00:41:40.465Z,20.63
2018-08-06T00:42:48.656Z,20.63
2018-08-06T00:43:56.897Z,20.67
2018-08-06T00:45:04.680Z,20.67
2018-08-06T00:46:12.750Z,20.64
2018-08-06T00:47:20.950Z,20.77
2018-08-06T00:48:28.893Z,20.74
2018-08-06T00:49:36.982Z,20.78
2018-08-06T00:50:45.030Z,20.71
2018-08-06T00:51:55.412Z,20.77
2018-08-06T00:53:01.404Z,20.82
2018-08-06T00:54:09.469Z,20.80
2018-08-06T00:55:17.544Z,20.80
2018-08-06T00:56:25.578Z,20.78
2018-08-06T00:57:33.879Z,20.77
2018-08-06T00:58:43.354Z,20.68
2018-08-06T00:59:50.005Z,20.71
2018-08-06T01:00:58.157Z,20.67
2018-08-06T01:02:06.162Z,20.71
2018-08-06T01:03:14.251Z,20.71
2018-08-06T01:04:23.341Z,20.70
2018-08-06T01:05:30.396Z,20.71
2018-08-06T01:06:38.468Z,20.70
2018-08-06T01:07:46.547Z,20.71
2018-08-06T01:08:54.585Z,20.66
2018-08-06T01:10:02.691Z,20.70
2018-08-06T01:11:10.777Z,20.64
2018-08-06T01:12:18.960Z,20.71
2018-08-06T01:13:26.998Z,20.60
2018-08-06T01:14:34.977Z,20.63
2018-08-06T01:15:43.098Z,20.55
2018-08-06T01:16:51.108Z,20.55
2018-08-06T01:17:59.174Z,20.48
2018-08-06T01:19:07.234Z,20.58
2018-08-06T01:20:15.365Z,20.50
2018-08-06T01:21:23.405Z,20.55
2018-08-06T01:22:31.490Z,20.58
2018-08-06T01:23:39.532Z,20.60
2018-08-06T01:24:47.633Z,20.70
2018-08-06T01:25:55.663Z,20.67
2018-08-06T01:27:04.145Z,20.67
2018-08-06T01:28:12.856Z,20.70
2018-08-06T01:29:19.911Z,20.70
2018-08-06T01:30:27.963Z,20.67
2018-08-06T01:31:36.091Z,20.66
2018-08-06T01:32:44.110Z,20.58
2018-08-06T01:33:52.189Z,20.52
2018-08-06T01:35:00.253Z,20.49
2018-08-06T01:36:08.307Z,20.50
2018-08-06T01:37:16.396Z,20.52
2018-08-06T01:38:24.471Z,20.53
2018-08-06T01:39:32.549Z,20.59
2018-08-06T01:40:40.647Z,20.53
2018-08-06T01:41:48.930Z,20.55
2018-08-06T01:42:56.940Z,20.50
2018-08-06T01:44:05.311Z,20.46
2018-08-06T01:45:13.093Z,20.52
2018-08-06T01:46:21.192Z,20.59
2018-08-06T01:47:29.249Z,20.64
2018-08-06T01:48:37.339Z,20.60
2018-08-06T01:49:45.399Z,20.66
2018-08-06T01:50:53.465Z,20.59
2018-08-06T01:52:01.545Z,20.56
2018-08-06T01:53:09.621Z,20.52
2018-08-06T01:54:17.667Z,20.49
2018-08-06T01:55:25.760Z,20.59
2018-08-06T01:56:33.954Z,20.50
2018-08-06T01:57:41.922Z,20.52
2018-08-06T01:58:49.969Z,20.56
2018-08-06T01:59:58.150Z,20.52
2018-08-06T02:01:06.100Z,20.52
2018-08-06T02:02:14.188Z,20.49
2018-08-06T02:03:22.256Z,20.63
2018-08-06T02:04:30.324Z,20.48
2018-08-06T02:05:38.398Z,20.46
2018-08-06T02:06:46.474Z,20.46
2018-08-06T02:07:57.974Z,20.44
2018-08-06T02:09:02.636Z,20.46
2018-08-06T02:10:10.796Z,20.49
2018-08-06T02:11:18.981Z,20.46
2018-08-06T02:12:27.153Z,20.37
2018-08-06T02:13:35.166Z,20.36
2018-08-06T02:14:43.226Z,20.49
2018-08-06T02:15:51.302Z,20.46
2018-08-06T02:16:59.416Z,20.37
2018-08-06T02:18:07.416Z,20.46
2018-08-06T02:19:15.458Z,20.52
2018-08-06T02:20:23.559Z,20.42
2018-08-06T02:21:31.621Z,20.50
2018-08-06T02:22:39.701Z,20.46
2018-08-06T02:23:47.754Z,20.50
2018-08-06T02:24:55.828Z,20.40
2018-08-06T02:26:04.111Z,20.33
2018-08-06T02:27:12.203Z,20.36
2018-08-06T02:28:20.342Z,20.33
2018-08-06T02:29:28.360Z,20.29
2018-08-06T02:30:36.402Z,20.17
2018-08-06T02:31:44.505Z,20.22
2018-08-06T02:32:52.618Z,20.30
2018-08-06T02:34:00.629Z,20.24
2018-08-06T02:35:08.693Z,20.29
2018-08-06T02:36:16.786Z,20.26
2018-08-06T02:37:24.850Z,20.14
2018-08-06T02:38:32.917Z,20.21
2018-08-06T02:39:40.968Z,20.22
2018-08-06T02:40:49.050Z,20.24
2018-08-06T02:41:57.107Z,20.29
2018-08-06T02:43:05.386Z,20.18
2018-08-06T02:44:13.260Z,20.22
2018-08-06T02:45:21.361Z,20.18
2018-08-06T02:46:29.546Z,20.22
2018-08-06T02:47:37.469Z,20.24
2018-08-06T02:48:45.601Z,20.21
2018-08-06T02:49:53.675Z,20.12
2018-08-06T02:51:03.115Z,20.10
2018-08-06T02:52:09.769Z,20.12
2018-08-06T02:53:17.821Z,20.04
2018-08-06T02:54:25.900Z,20.02
2018-08-06T02:55:33.969Z,20.02
2018-08-06T02:56:42.076Z,19.99
2018-08-06T02:57:51.572Z,20.00
2018-08-06T02:58:58.440Z,20.12
2018-08-06T03:00:06.298Z,20.11
2018-08-06T03:01:14.371Z,20.14
2018-08-06T03:02:22.528Z,20.12
2018-08-06T03:03:30.682Z,20.03
2018-08-06T03:04:38.781Z,20.14
2018-08-06T03:05:47.118Z,20.02
2018-08-06T03:06:54.922Z,20.00
2018-08-06T03:08:04.252Z,20.07
2018-08-06T03:09:11.096Z,20.12
2018-08-06T03:10:19.122Z,20.00
2018-08-06T03:11:27.179Z,20.12
2018-08-06T03:12:35.253Z,20.11
2018-08-06T03:13:43.333Z,20.15
2018-08-06T03:14:51.406Z,20.14
2018-08-06T03:15:59.484Z,20.15
2018-08-06T03:17:07.850Z,20.14
2018-08-06T03:18:15.634Z,20.10
2018-08-06T03:19:23.737Z,20.14
2018-08-06T03:20:31.766Z,20.12
2018-08-06T03:21:39.818Z,20.03
2018-08-06T03:22:47.908Z,19.97
2018-08-06T03:23:55.954Z,19.99
2018-08-06T03:25:04.043Z,20.02
2018-08-06T03:26:15.580Z,19.89
2018-08-06T03:27:20.198Z,19.94
2018-08-06T03:28:28.284Z,19.89
2018-08-06T03:29:36.390Z,19.90
2018-08-06T03:30:44.600Z,19.92
2018-08-06T03:31:52.565Z,19.90
2018-08-06T03:33:02.191Z,19.92
2018-08-06T03:34:08.631Z,19.90
2018-08-06T03:35:16.732Z,19.90
2018-08-06T03:36:24.779Z,19.90
2018-08-06T03:37:32.872Z,20.00
2018-08-06T03:38:40.943Z,19.94
2018-08-06T03:39:48.977Z,19.93
2018-08-06T03:40:57.069Z,20.02
2018-08-06T03:42:05.140Z,19.92
2018-08-06T03:43:13.227Z,19.94
2018-08-06T03:44:21.268Z,19.87
2018-08-06T03:45:29.371Z,19.90
2018-08-06T03:46:37.428Z,19.90
2018-08-06T03:47:45.514Z,19.89
2018-08-06T03:48:53.568Z,19.92
2018-08-06T03:50:01.655Z,19.92
2018-08-06T03:51:09.696Z,19.90
2018-08-06T03:52:17.804Z,19.92
2018-08-06T03:53:25.849Z,20.03
2018-08-06T03:54:33.930Z,19.97
2018-08-06T03:55:42.008Z,19.94
2018-08-06T03:56:50.100Z,19.99
2018-08-06T03:57:58.175Z,20.00
2018-08-06T03:59:06.218Z,19.87
2018-08-06T04:00:14.655Z,19.90
2018-08-06T04:01:22.376Z,19.87
2018-08-06T04:02:30.560Z,19.87
2018-08-06T04:03:38.527Z,19.82
2018-08-06T04:04:46.704Z,19.84
2018-08-06T04:05:54.624Z,19.78
2018-08-06T04:07:02.715Z,19.75
2018-08-06T04:08:10.777Z,19.67
2018-08-06T04:09:23.341Z,19.74
2018-08-06T04:10:28.643Z,19.67
2018-08-06T04:11:34.991Z,19.67
2018-08-06T04:12:43.065Z,19.72
2018-08-06T04:13:51.158Z,19.71
2018-08-06T04:14:59.172Z,19.57
2018-08-06T04:16:07.398Z,19.62
2018-08-06T04:17:15.336Z,19.62
2018-08-06T04:18:25.672Z,19.71
2018-08-06T04:19:31.474Z,19.70
2018-08-06T04:20:42.907Z,19.52
2018-08-06T04:21:47.769Z,19.75
2018-08-06T04:22:59.305Z,19.71
2018-08-06T04:24:03.963Z,19.66
2018-08-06T04:25:12.117Z,19.72
2018-08-06T04:26:20.155Z,19.57
2018-08-06T04:27:28.194Z,19.72
2018-08-06T04:28:36.260Z,19.71
2018-08-06T04:29:44.336Z,19.71
2018-08-06T04:30:52.881Z,19.71
2018-08-06T04:32:02.597Z,19.70
2018-08-06T04:33:08.789Z,19.70
2018-08-06T04:34:16.891Z,19.70
2018-08-06T04:35:25.574Z,19.72
2018-08-06T04:36:32.969Z,19.71
2018-08-06T04:37:41.024Z,19.75
2018-08-06T04:38:49.098Z,19.82
2018-08-06T04:39:57.136Z,19.75
2018-08-06T04:41:05.205Z,19.75
2018-08-06T04:42:13.296Z,19.89
2018-08-06T04:43:21.370Z,19.87
2018-08-06T04:44:29.461Z,19.85
2018-08-06T04:45:37.518Z,19.90
2018-08-06T04:46:45.675Z,19.93
2018-08-06T04:47:53.661Z,19.89
2018-08-06T04:49:02.278Z,19.90
2018-08-06T04:50:09.784Z,19.90
2018-08-06T04:51:19.245Z,19.97
2018-08-06T04:52:26.110Z,20.03
2018-08-06T04:53:34.176Z,19.99
2018-08-06T04:54:42.089Z,20.10
2018-08-06T04:55:50.152Z,20.14
2018-08-06T04:56:58.500Z,20.17
2018-08-06T04:58:06.491Z,20.21
2018-08-06T04:59:14.585Z,20.21
2018-08-06T05:00:22.610Z,20.29
2018-08-06T05:01:31.226Z,20.29
2018-08-06T05:02:38.762Z,20.32
2018-08-06T05:03:46.855Z,20.36
2018-08-06T05:04:54.906Z,20.42
2018-08-06T05:06:02.994Z,20.50
2018-08-06T05:07:11.038Z,20.42
2018-08-06T05:08:19.110Z,20.44
2018-08-06T05:09:27.185Z,20.37
2018-08-06T05:10:35.264Z,20.55
2018-08-06T05:11:43.339Z,20.50
2018-08-06T05:12:51.486Z,20.60
2018-08-06T05:13:59.486Z,20.70
2018-08-06T05:15:07.570Z,20.67
2018-08-06T05:16:15.877Z,20.75
2018-08-06T05:17:23.702Z,20.73
2018-08-06T05:18:31.893Z,20.83
2018-08-06T05:19:39.838Z,20.83
2018-08-06T05:20:48.257Z,20.82
2018-08-06T05:21:55.972Z,20.85
2018-08-06T05:23:07.651Z,20.83
2018-08-06T05:24:12.385Z,20.92
2018-08-06T05:25:20.458Z,20.89
2018-08-06T05:26:28.485Z,20.93
2018-08-06T05:27:36.883Z,21.01
2018-08-06T05:28:44.647Z,21.07
2018-08-06T05:29:53.749Z,21.04
2018-08-06T05:31:01.068Z,21.13
2018-08-06T05:32:08.859Z,21.25
2018-08-06T05:33:16.933Z,21.33
2018-08-06T05:34:25.010Z,21.33
2018-08-06T05:35:33.079Z,21.35
2018-08-06T05:36:41.154Z,21.30
2018-08-06T05:37:49.198Z,21.47
2018-08-06T05:38:57.280Z,21.50
2018-08-06T05:40:05.456Z,21.50
2018-08-06T05:41:13.519Z,21.63
2018-08-06T05:42:21.809Z,21.70
2018-08-06T05:43:29.592Z,21.62
2018-08-06T05:44:37.678Z,21.68
2018-08-06T05:45:45.692Z,21.69
2018-08-06T05:46:53.820Z,21.74
2018-08-06T05:48:01.867Z,21.80
2018-08-06T05:49:09.984Z,21.88
2018-08-06T05:50:18.004Z,21.94
2018-08-06T05:51:26.061Z,21.96
2018-08-06T05:52:34.175Z,22.15
2018-08-06T05:53:45.665Z,22.14
2018-08-06T05:54:50.564Z,22.07
2018-08-06T05:55:58.386Z,22.15
2018-08-06T05:57:06.443Z,22.16
2018-08-06T05:58:14.590Z,22.16
2018-08-06T05:59:22.579Z,22.14
2018-08-06T06:00:30.680Z,22.22
2018-08-06T06:01:38.738Z,22.19
2018-08-06T06:02:46.908Z,22.21
2018-08-06T06:03:54.958Z,22.26
2018-08-06T06:05:03.071Z,22.22
2018-08-06T06:06:11.019Z,22.19
2018-08-06T06:07:19.103Z,22.15
2018-08-06T06:08:27.196Z,22.22
2018-08-06T06:09:35.346Z,22.18
2018-08-06T06:10:43.324Z,22.22
2018-08-06T06:11:51.555Z,22.26
2018-08-06T06:12:59.460Z,22.26
2018-08-06T06:14:07.556Z,22.26
2018-08-06T06:15:15.599Z,22.31
2018-08-06T06:16:23.721Z,22.41
2018-08-06T06:17:31.788Z,22.53
2018-08-06T06:18:39.871Z,22.53
2018-08-06T06:19:47.964Z,22.52
2018-08-06T06:20:55.982Z,22.59
2018-08-06T06:22:04.109Z,22.61
2018-08-06T06:23:12.133Z,22.63
2018-08-06T06:24:20.255Z,22.74
2018-08-06T06:25:28.289Z,22.80
2018-08-06T06:26:36.382Z,22.65
2018-08-06T06:27:44.499Z,22.78
2018-08-06T06:28:52.516Z,22.83
2018-08-06T06:30:00.610Z,22.74
2018-08-06T06:31:08.680Z,22.77
2018-08-06T06:32:16.753Z,22.81
2018-08-06T06:33:24.826Z,22.80
2018-08-06T06:34:33.001Z,22.89
2018-08-06T06:35:40.989Z,22.84
2018-08-06T06:36:49.095Z,22.93
2018-08-06T06:37:57.100Z,23.04
2018-08-06T06:39:05.178Z,23.07
2018-08-06T06:40:16.642Z,23.04
2018-08-06T06:41:21.354Z,23.10
2018-08-06T06:42:29.450Z,23.18
2018-08-06T06:43:37.485Z,23.16
2018-08-06T06:44:45.557Z,23.20
2018-08-06T06:45:53.637Z,23.34
2018-08-06T06:47:01.733Z,23.36
2018-08-06T06:48:09.784Z,23.42
2018-08-06T06:49:17.909Z,23.45
2018-08-06T06:50:25.906Z,23.51
2018-08-06T06:51:34.054Z,23.42
2018-08-06T06:52:42.390Z,23.44
2018-08-06T06:53:50.161Z,23.47
2018-08-06T06:54:58.303Z,23.52
2018-08-06T06:56:06.423Z,23.58
2018-08-06T06:57:14.389Z,23.51
2018-08-06T06:58:22.756Z,23.64
2018-08-06T06:59:30.751Z,23.56
2018-08-06T07:00:38.832Z,23.64
2018-08-06T07:01:46.886Z,23.63
2018-08-06T07:02:54.998Z,23.66
2018-08-06T07:04:03.030Z,23.81
2018-08-06T07:05:11.148Z,23.85
2018-08-06T07:06:19.216Z,23.92
2018-08-06T07:07:27.271Z,24.00
2018-08-06T07:08:35.617Z,24.21
2018-08-06T07:09:43.420Z,24.24
2018-08-06T07:10:51.487Z,24.43
2018-08-06T07:11:59.882Z,24.43
2018-08-06T07:13:07.636Z,24.46
2018-08-06T07:14:15.800Z,24.62
2018-08-06T07:15:25.471Z,24.63
2018-08-06T07:16:31.863Z,24.79
2018-08-06T07:17:43.500Z,24.89
2018-08-06T07:18:48.024Z,24.99
2018-08-06T07:19:57.683Z,25.06
2018-08-06T07:21:06.973Z,25.15
2018-08-06T07:22:15.043Z,25.37
2018-08-06T07:23:23.137Z,25.52
2018-08-06T07:24:31.510Z,25.85
2018-08-06T07:25:40.765Z,25.98
2018-08-06T07:26:47.361Z,26.34
2018-08-06T07:27:55.416Z,26.44
2018-08-06T07:29:03.482Z,26.70
2018-08-06T07:30:11.596Z,26.98
2018-08-06T07:31:19.654Z,27.34
2018-08-06T07:32:29.249Z,27.75
2018-08-06T07:33:37.857Z,28.13
2018-08-06T07:34:43.870Z,28.74
2018-08-06T07:35:52.089Z,28.97
2018-08-06T07:37:00.127Z,29.22
2018-08-06T07:38:08.124Z,29.47
2018-08-06T07:39:16.169Z,29.67
2018-08-06T07:40:24.318Z,29.99
2018-08-06T07:41:32.404Z,29.98
2018-08-06T07:42:43.927Z,29.96
2018-08-06T07:43:50.082Z,30.27
2018-08-06T07:44:56.582Z,30.35
2018-08-06T07:46:04.650Z,30.80
2018-08-06T07:47:12.728Z,30.86
2018-08-06T07:48:21.085Z,30.89
2018-08-06T07:49:32.642Z,31.10
2018-08-06T07:50:37.988Z,31.15
2018-08-06T07:51:45.058Z,31.25
2018-08-06T07:52:53.129Z,31.41
2018-08-06T07:54:01.266Z,31.47
2018-08-06T07:55:09.298Z,31.48
2018-08-06T07:56:17.424Z,31.45
2018-08-06T07:57:27.617Z,31.59
2018-08-06T07:59:49.227Z,31.74
2018-08-06T08:00:57.218Z,31.60
2018-08-06T08:02:05.253Z,31.62
2018-08-06T08:03:13.549Z,31.51
2018-08-06T08:04:21.436Z,31.51
2018-08-06T08:05:31.808Z,31.67
2018-08-06T08:06:39.825Z,31.72
2018-08-06T08:07:47.883Z,31.90
2018-08-06T08:08:56.144Z,31.95
2018-08-06T08:10:05.248Z,32.01
2018-08-06T08:11:12.266Z,32.19
2018-08-06T08:12:20.361Z,32.12
2018-08-06T08:13:28.304Z,32.31
2018-08-06T08:14:37.780Z,32.57
2018-08-06T08:15:44.476Z,32.45
2018-08-06T08:16:52.575Z,32.17
2018-08-06T08:18:00.798Z,32.17
2018-08-06T08:19:12.268Z,32.35
2018-08-06T08:20:16.931Z,32.53
2018-08-06T08:21:24.889Z,32.42
2018-08-06T08:22:33.051Z,32.44
2018-08-06T08:23:45.582Z,32.26
2018-08-06T08:24:49.137Z,32.16
2018-08-06T08:25:57.249Z,32.22
2018-08-06T08:27:05.309Z,32.24
2018-08-06T08:28:13.519Z,32.44
2018-08-06T08:29:21.851Z,32.38
2018-08-06T08:30:29.621Z,32.46
2018-08-06T08:31:37.666Z,32.45
2018-08-06T08:32:45.743Z,32.24
2018-08-06T08:33:53.868Z,32.30
2018-08-06T08:35:01.936Z,32.23
2018-08-06T08:36:10.004Z,32.23
2018-08-06T08:37:18.088Z,32.09
2018-08-06T08:38:26.469Z,32.29
2018-08-06T08:39:34.316Z,32.45
2018-08-06T08:40:42.999Z,32.59
2018-08-06T08:41:50.425Z,32.68
2018-08-06T08:42:58.519Z,33.00
2018-08-06T08:44:06.593Z,33.01
2018-08-06T08:45:16.782Z,33.31
2018-08-06T08:46:22.960Z,33.20
2018-08-06T08:47:31.088Z,33.09
2018-08-06T08:48:39.143Z,33.26
2018-08-06T08:49:50.584Z,33.09
2018-08-06T08:50:55.292Z,33.12
2018-08-06T08:52:03.401Z,33.22
2018-08-06T08:53:11.461Z,33.19
2018-08-06T08:54:19.578Z,33.20
2018-08-06T08:55:27.626Z,32.98
2018-08-06T08:56:35.803Z,32.85
2018-08-06T08:57:43.815Z,32.95
2018-08-06T08:58:52.265Z,32.90
2018-08-06T09:00:00.169Z,32.81
2018-08-06T09:01:11.685Z,32.86
2018-08-06T09:02:16.336Z,32.83
2018-08-06T09:03:24.426Z,32.81
2018-08-06T09:04:32.612Z,32.68
2018-08-06T09:05:40.593Z,32.56
2018-08-06T09:06:48.909Z,32.46
2018-08-06T09:07:56.762Z,32.59
2018-08-06T09:09:04.870Z,32.54
2018-08-06T09:10:16.297Z,32.60
2018-08-06T09:11:21.280Z,32.59
2018-08-06T09:12:29.215Z,32.56
2018-08-06T09:13:38.328Z,32.48
2018-08-06T09:14:48.717Z,32.27
2018-08-06T09:15:53.373Z,31.92
2018-08-06T09:17:01.453Z,31.74
2018-08-06T09:18:09.538Z,31.64
2018-08-06T09:19:17.643Z,31.44
2018-08-06T09:20:25.677Z,31.28
2018-08-06T09:21:34.047Z,31.17
2018-08-06T09:23:01.714Z,31.07
2018-08-06T09:23:50.554Z,30.86
2018-08-06T09:24:58.695Z,30.78
2018-08-06T09:26:06.736Z,30.71
2018-08-06T09:27:14.793Z,30.67
2018-08-06T09:28:26.292Z,30.67
2018-08-06T09:29:30.967Z,30.67
2018-08-06T09:30:39.082Z,30.61
2018-08-06T09:31:47.120Z,30.20
2018-08-06T09:32:58.627Z,30.01
2018-08-06T09:34:03.348Z,29.86
2018-08-06T09:35:11.406Z,29.83
2018-08-06T09:36:19.661Z,29.86
2018-08-06T09:37:27.751Z,29.98
2018-08-06T09:38:35.796Z,29.90
2018-08-06T09:39:43.927Z,29.94
2018-08-06T09:40:51.984Z,30.02
2018-08-06T09:42:00.178Z,29.94
2018-08-06T09:43:08.155Z,30.08
2018-08-06T09:44:16.274Z,30.08
2018-08-06T09:45:24.284Z,30.16
2018-08-06T09:46:32.581Z,30.31
2018-08-06T09:47:40.664Z,30.38
2018-08-06T09:48:48.760Z,30.33
2018-08-06T09:49:56.806Z,30.40
2018-08-06T09:51:04.931Z,30.49
2018-08-06T09:52:18.298Z,30.55
2018-08-06T09:53:23.473Z,30.55
2018-08-06T09:54:31.590Z,30.71
2018-08-06T09:55:41.559Z,30.71
2018-08-06T09:56:47.885Z,30.70
2018-08-06T09:57:56.223Z,30.70
2018-08-06T09:59:04.197Z,30.81
2018-08-06T10:00:12.126Z,30.89
2018-08-06T10:01:20.232Z,30.46
2018-08-06T10:02:28.290Z,30.56
2018-08-06T10:03:36.696Z,30.58
2018-08-06T10:04:44.458Z,30.58
2018-08-06T10:05:52.743Z,30.69
2018-08-06T10:07:00.600Z,30.88
2018-08-06T10:08:08.702Z,30.93
2018-08-06T10:09:16.822Z,30.89
2018-08-06T10:10:24.853Z,31.02
2018-08-06T10:11:32.978Z,31.07
2018-08-06T10:12:41.120Z,31.13
2018-08-06T10:13:49.186Z,30.74
2018-08-06T10:14:57.173Z,30.65
2018-08-06T10:16:05.255Z,30.65
2018-08-06T10:17:13.371Z,30.85
2018-08-06T10:18:21.401Z,30.83
2018-08-06T10:19:29.517Z,31.05
2018-08-06T10:20:37.601Z,31.15
2018-08-06T10:21:45.656Z,31.23
2018-08-06T10:22:53.716Z,31.39
2018-08-06T10:24:01.810Z,31.45
2018-08-06T10:25:13.210Z,31.55
2018-08-06T10:26:17.971Z,31.62
2018-08-06T10:27:26.062Z,31.62
2018-08-06T10:28:34.178Z,31.69
2018-08-06T10:29:42.312Z,31.74
2018-08-06T10:30:50.404Z,31.81
2018-08-06T10:31:58.390Z,31.77
2018-08-06T10:33:06.550Z,31.87
2018-08-06T10:34:14.558Z,31.72
2018-08-06T10:35:22.598Z,31.89
2018-08-06T10:36:30.681Z,31.81
2018-08-06T10:37:38.780Z,32.00
2018-08-06T10:38:47.902Z,31.95
2018-08-06T10:39:54.929Z,31.79
2018-08-06T10:41:03.001Z,31.85
2018-08-06T10:42:11.177Z,31.85
2018-08-06T10:43:19.185Z,31.79
2018-08-06T10:44:28.832Z,31.95
2018-08-06T10:45:35.506Z,31.97
2018-08-06T10:46:46.706Z,31.93
2018-08-06T10:47:51.694Z,31.98
2018-08-06T10:48:59.991Z,31.93
2018-08-06T10:50:08.043Z,31.92
2018-08-06T10:51:16.186Z,31.93
2018-08-06T10:52:24.213Z,31.90
2018-08-06T10:53:32.306Z,31.97
2018-08-06T10:54:40.397Z,31.93
2018-08-06T10:55:48.468Z,31.81
2018-08-06T10:56:56.504Z,31.95
2018-08-06T10:58:04.900Z,32.01
2018-08-06T10:59:12.847Z,32.09
2018-08-06T11:00:20.829Z,32.12
2018-08-06T11:01:28.854Z,32.12
2018-08-06T11:02:38.419Z,32.12
2018-08-06T11:03:45.003Z,32.11
2018-08-06T11:04:54.981Z,32.02
2018-08-06T11:06:01.163Z,32.00
2018-08-06T11:07:09.272Z,31.87
2018-08-06T11:08:17.411Z,31.79
2018-08-06T11:09:25.437Z,31.92
2018-08-06T11:10:33.509Z,31.92
2018-08-06T11:11:42.145Z,32.05
2018-08-06T11:12:49.850Z,32.09
2018-08-06T11:13:58.021Z,32.29
2018-08-06T11:15:06.027Z,32.38
2018-08-06T11:16:14.089Z,32.53
2018-08-06T11:17:22.182Z,32.60
2018-08-06T11:18:31.275Z,32.66
2018-08-06T11:19:38.342Z,32.67
2018-08-06T11:20:46.410Z,32.76
2018-08-06T11:21:54.495Z,32.64
2018-08-06T11:23:02.573Z,32.63
2018-08-06T11:24:10.656Z,32.67
2018-08-06T11:25:18.757Z,32.68
2018-08-06T11:26:30.244Z,32.73
2018-08-06T11:27:35.198Z,32.73
2018-08-06T11:28:42.990Z,32.85
2018-08-06T11:29:51.310Z,32.76
2018-08-06T11:30:59.145Z,32.76
2018-08-06T11:32:07.208Z,32.76
2018-08-06T11:33:15.515Z,32.67
2018-08-06T11:34:23.590Z,32.72
2018-08-06T11:35:31.662Z,32.67
2018-08-06T11:36:39.769Z,32.72
2018-08-06T11:37:47.867Z,32.73
2018-08-06T11:38:56.944Z,32.78
2018-08-06T11:40:04.202Z,32.82
2018-08-06T11:41:12.305Z,32.88
2018-08-06T11:42:20.408Z,32.85
2018-08-06T11:43:28.435Z,32.95
2018-08-06T11:44:36.583Z,32.91
2018-08-06T11:45:44.599Z,32.91
2018-08-06T11:46:52.743Z,32.94
2018-08-06T11:48:00.753Z,33.08
2018-08-06T11:49:08.848Z,32.98
2018-08-06T11:50:20.634Z,33.03
2018-08-06T11:51:25.097Z,33.10
2018-08-06T11:52:36.660Z,33.01
2018-08-06T11:53:41.153Z,33.19
2018-08-06T11:54:52.762Z,33.13
2018-08-06T11:55:57.314Z,33.17
2018-08-06T11:57:05.416Z,33.31
2018-08-06T11:58:13.508Z,33.36
2018-08-06T11:59:21.851Z,33.29
2018-08-06T12:00:29.630Z,33.35
2018-08-06T12:01:37.747Z,33.29
2018-08-06T12:02:45.772Z,33.29
2018-08-06T12:03:54.400Z,33.35
2018-08-06T12:05:02.142Z,33.32
2018-08-06T12:06:10.261Z,33.22
2018-08-06T12:07:18.359Z,33.17
2018-08-06T12:08:26.426Z,33.20
2018-08-06T12:09:34.495Z,33.23
2018-08-06T12:10:42.591Z,33.29
2018-08-06T12:11:50.624Z,33.35
2018-08-06T12:12:58.788Z,33.42
2018-08-06T12:14:06.803Z,33.58
2018-08-06T12:15:14.985Z,33.60
2018-08-06T12:16:22.993Z,33.69
2018-08-06T12:17:31.056Z,33.61
2018-08-06T12:18:39.119Z,33.70
2018-08-06T12:19:47.249Z,33.72
2018-08-06T12:20:55.333Z,33.66
2018-08-06T12:22:03.366Z,33.63
2018-08-06T12:23:11.452Z,33.60
2018-08-06T12:24:20.627Z,33.54
2018-08-06T12:25:29.059Z,33.66
2018-08-06T12:26:35.944Z,33.61
2018-08-06T12:27:43.792Z,33.45
2018-08-06T12:28:51.870Z,33.54
2018-08-06T12:29:59.955Z,33.55
2018-08-06T12:31:08.003Z,33.50
2018-08-06T12:32:16.104Z,33.50
2018-08-06T12:33:24.181Z,33.57
2018-08-06T12:34:32.311Z,33.47
2018-08-06T12:35:40.329Z,33.60
2018-08-06T12:36:48.432Z,33.38
2018-08-06T12:37:56.691Z,33.45
2018-08-06T12:39:04.786Z,33.45
2018-08-06T12:40:13.901Z,33.42
2018-08-06T12:41:21.121Z,33.42
2018-08-06T12:42:29.095Z,33.51
2018-08-06T12:43:37.093Z,33.40
2018-08-06T12:44:45.198Z,33.40
2018-08-06T12:45:53.251Z,33.47
2018-08-06T12:47:01.338Z,33.44
2018-08-06T12:48:09.405Z,33.50
2018-08-06T12:49:20.910Z,33.44
2018-08-06T12:50:25.567Z,33.48
2018-08-06T12:51:37.113Z,33.54
2018-08-06T12:52:41.752Z,33.58
2018-08-06T12:53:50.084Z,33.51
2018-08-06T12:54:58.169Z,33.42
2018-08-06T12:56:07.429Z,33.38
2018-08-06T12:57:14.058Z,33.53
2018-08-06T12:58:22.395Z,33.60
2018-08-06T12:59:30.215Z,33.69
2018-08-06T13:00:38.321Z,33.65
2018-08-06T13:01:46.464Z,33.75
2018-08-06T13:02:54.515Z,33.51
2018-08-06T13:04:02.547Z,33.45
2018-08-06T13:05:14.144Z,33.39
2018-08-06T13:06:18.879Z,33.42
2018-08-06T13:07:26.799Z,33.48
2018-08-06T13:08:35.027Z,33.54
2018-08-06T13:09:42.968Z,33.63
2018-08-06T13:10:51.307Z,33.63
2018-08-06T13:11:59.120Z,33.65
2018-08-06T13:13:07.179Z,33.66
2018-08-06T13:14:15.645Z,33.66
2018-08-06T13:15:23.334Z,33.66
2018-08-06T13:16:31.687Z,33.58
2018-08-06T13:17:39.590Z,33.60
2018-08-06T13:18:47.584Z,33.51
2018-08-06T13:19:55.670Z,33.58
2018-08-06T13:21:03.858Z,33.39
2018-08-06T13:22:13.270Z,33.26
2018-08-06T13:23:19.906Z,33.15
2018-08-06T13:24:27.977Z,32.91
2018-08-06T13:25:36.065Z,32.93
2018-08-06T13:26:44.176Z,32.88
2018-08-06T13:27:52.241Z,33.04
2018-08-06T13:29:00.327Z,33.04
2018-08-06T13:30:08.378Z,33.17
2018-08-06T13:31:16.493Z,33.13
2018-08-06T13:32:24.551Z,33.05
2018-08-06T13:33:32.668Z,33.08
2018-08-06T13:34:40.761Z,33.03
2018-08-06T13:35:48.801Z,32.95
2018-08-06T13:36:56.939Z,32.95
2018-08-06T13:38:05.079Z,33.00
2018-08-06T13:39:13.033Z,32.98
2018-08-06T13:40:21.099Z,33.04
2018-08-06T13:41:29.180Z,33.10
2018-08-06T13:42:37.274Z,33.15
2018-08-06T13:43:45.372Z,33.12
2018-08-06T13:44:53.424Z,33.12
2018-08-06T13:46:01.499Z,33.05
2018-08-06T13:47:09.644Z,32.94
2018-08-06T13:48:21.080Z,33.03
2018-08-06T13:49:25.832Z,33.09
2018-08-06T13:50:33.855Z,32.93
2018-08-06T13:51:41.959Z,32.93
2018-08-06T13:52:50.015Z,32.94
2018-08-06T13:53:58.165Z,33.05
2018-08-06T13:55:06.152Z,32.98
2018-08-06T13:56:14.481Z,32.85
2018-08-06T13:57:22.339Z,32.82
2018-08-06T13:58:30.402Z,32.72
2018-08-06T13:59:38.588Z,32.78
2018-08-06T14:00:46.530Z,32.78
2018-08-06T14:01:54.642Z,32.76
2018-08-06T14:03:02.731Z,32.79
2018-08-06T14:04:10.800Z,32.67
2018-08-06T14:05:19.153Z,32.73
2018-08-06T14:06:27.183Z,32.64
2018-08-06T14:07:35.238Z,32.67
2018-08-06T14:08:43.310Z,32.61
2018-08-06T14:09:51.404Z,32.71
2018-08-06T14:10:59.734Z,32.82
2018-08-06T14:12:07.568Z,32.79
2018-08-06T14:13:15.633Z,32.82
2018-08-06T14:14:23.706Z,32.93
2018-08-06T14:15:31.814Z,32.85
2018-08-06T14:16:43.278Z,32.81
2018-08-06T14:17:47.952Z,32.76
2018-08-06T14:18:59.696Z,32.82
2018-08-06T14:20:04.111Z,32.91
2018-08-06T14:21:12.198Z,32.76
2018-08-06T14:22:20.374Z,32.60
2018-08-06T14:23:28.403Z,32.61
2018-08-06T14:24:36.407Z,32.49
2018-08-06T14:25:44.533Z,32.48
2018-08-06T14:26:52.599Z,32.39
2018-08-06T14:28:00.702Z,32.34
2018-08-06T14:29:08.747Z,32.20
2018-08-06T14:30:16.840Z,32.12
2018-08-06T14:31:24.936Z,32.17
2018-08-06T14:32:33.007Z,32.29
2018-08-06T14:33:41.084Z,32.30
2018-08-06T14:34:49.381Z,32.08
2018-08-06T14:35:57.432Z,32.02
2018-08-06T14:37:05.523Z,32.12
2018-08-06T14:38:13.582Z,32.00